createdAt,value
2023-01-06T00:01:16.923Z,6.82
2023-01-06T00:03:48.829Z,6.88
2023-01-06T00:08:41.943Z,7.47
2023-01-06T00:11:10.218Z,12.32
2023-01-06T00:13:37.602Z,8.50
2023-01-06T00:16:06.570Z,9.32
2023-01-06T00:18:33.423Z,12.68
2023-01-06T00:21:02.186Z,7.90
2023-01-06T00:23:28.762Z,10.13
2023-01-06T00:25:55.339Z,10.18
2023-01-06T00:28:21.938Z,11.85
2023-01-06T00:30:48.566Z,11.93
2023-01-06T00:33:15.238Z,11.38
2023-01-06T00:35:41.812Z,11.88
2023-01-06T00:38:10.122Z,9.20
2023-01-06T00:40:37.475Z,10.40
2023-01-06T00:43:05.462Z,10.00
2023-01-06T00:45:32.707Z,11.52
2023-01-06T00:47:59.425Z,10.75
2023-01-06T00:50:26.381Z,11.82
2023-01-06T00:52:52.921Z,9.88
2023-01-06T00:55:20.842Z,9.27
2023-01-06T00:57:47.353Z,9.18
2023-01-06T01:00:14.589Z,11.13
2023-01-06T01:02:41.309Z,11.07
2023-01-06T01:05:08.897Z,7.57
2023-01-06T01:07:35.669Z,11.27
2023-01-06T01:10:02.648Z,24.45
2023-01-06T01:12:30.541Z,33.58
2023-01-06T01:14:57.579Z,31.30
2023-01-06T01:17:27.139Z,23.95
2023-01-06T01:19:54.962Z,9.18
2023-01-06T01:22:22.351Z,14.15
2023-01-06T01:24:48.902Z,10.57
2023-01-06T01:27:15.787Z,8.90
2023-01-06T01:29:44.108Z,11.25
2023-01-06T01:32:10.730Z,7.72
2023-01-06T01:34:37.598Z,8.35
2023-01-06T01:37:04.179Z,10.18
2023-01-06T01:39:31.020Z,8.43
2023-01-06T01:41:58.794Z,11.13
2023-01-06T01:44:58.985Z,6.65
2023-01-06T01:47:33.228Z,6.45
2023-01-06T01:50:06.181Z,6.60
2023-01-06T01:52:33.289Z,7.80
2023-01-06T01:55:00.846Z,8.02
2023-01-06T01:57:34.508Z,7.22
2023-01-06T02:00:05.679Z,7.13
2023-01-06T02:02:41.332Z,7.07
2023-01-06T02:05:10.680Z,9.10
2023-01-06T02:07:38.543Z,8.10
2023-01-06T02:10:11.143Z,7.45
2023-01-06T02:12:38.405Z,8.38
2023-01-06T02:15:16.508Z,7.05
2023-01-06T02:18:07.117Z,7.63
2023-01-06T02:20:47.767Z,8.98
2023-01-06T02:23:35.459Z,9.05
2023-01-06T02:26:34.914Z,7.53
2023-01-06T02:29:27.782Z,9.00
2023-01-06T02:32:02.124Z,7.18
2023-01-06T02:34:40.592Z,10.07
2023-01-06T02:37:16.672Z,9.25
2023-01-06T02:39:58.563Z,6.90
2023-01-06T02:42:38.206Z,7.35
2023-01-06T02:45:17.686Z,6.88
2023-01-06T02:47:54.779Z,8.07
2023-01-06T02:50:30.883Z,6.18
2023-01-06T02:53:06.182Z,8.95
2023-01-06T02:55:37.218Z,7.30
2023-01-06T03:00:35.039Z,5.90
2023-01-06T03:03:09.012Z,6.75
2023-01-06T03:05:37.763Z,6.97
2023-01-06T03:08:08.608Z,9.00
2023-01-06T03:10:36.450Z,7.20
2023-01-06T03:13:07.126Z,6.28
2023-01-06T03:15:34.845Z,5.53
2023-01-06T03:18:03.255Z,5.50
2023-01-06T03:20:30.007Z,5.25
2023-01-06T03:22:56.594Z,5.63
2023-01-06T03:25:23.741Z,6.35
2023-01-06T03:27:50.743Z,5.38
2023-01-06T03:30:24.057Z,5.55
2023-01-06T03:32:59.747Z,5.82
2023-01-06T03:35:47.524Z,5.57
2023-01-06T03:38:26.408Z,5.82
2023-01-06T03:40:59.752Z,6.65
2023-01-06T03:43:35.578Z,5.25
2023-01-06T03:46:15.738Z,6.15
2023-01-06T03:48:53.064Z,5.72
2023-01-06T03:51:31.897Z,4.68
2023-01-06T03:54:04.250Z,10.43
2023-01-06T03:56:35.774Z,4.35
2023-01-06T03:59:09.358Z,4.18
2023-01-06T04:04:03.388Z,4.63
2023-01-06T04:06:32.295Z,4.20
2023-01-06T04:09:02.139Z,4.15
2023-01-06T04:11:30.829Z,5.13
2023-01-06T04:13:57.477Z,5.40
2023-01-06T04:16:24.314Z,5.90
2023-01-06T04:18:51.394Z,4.03
2023-01-06T04:21:18.052Z,3.72
2023-01-06T04:23:46.005Z,3.50
2023-01-06T04:26:12.655Z,4.18
2023-01-06T04:28:45.894Z,4.10
2023-01-06T04:31:12.688Z,3.28
2023-01-06T04:33:40.507Z,3.63
2023-01-06T04:36:10.293Z,2.10
2023-01-06T04:38:39.980Z,5.18
2023-01-06T04:41:07.871Z,3.40
2023-01-06T04:43:34.756Z,7.88
2023-01-06T04:46:01.310Z,2.72
2023-01-06T04:48:27.927Z,2.47
2023-01-06T04:51:00.927Z,3.75
2023-01-06T04:53:27.554Z,2.70
2023-01-06T04:55:54.077Z,2.22
2023-01-06T04:58:22.014Z,5.88
2023-01-06T05:00:48.530Z,5.10
2023-01-06T05:03:15.186Z,4.40
2023-01-06T05:05:41.725Z,6.65
2023-01-06T05:08:08.282Z,7.13
2023-01-06T05:10:35.007Z,2.55
2023-01-06T05:13:01.611Z,3.55
2023-01-06T05:15:30.054Z,2.50
2023-01-06T05:17:56.605Z,3.45
2023-01-06T05:20:23.227Z,3.00
2023-01-06T05:22:49.834Z,1.35
2023-01-06T05:25:16.595Z,3.65
2023-01-06T05:27:43.196Z,2.90
2023-01-06T05:30:10.795Z,2.30
2023-01-06T05:32:38.704Z,3.58
2023-01-06T05:35:06.072Z,2.13
2023-01-06T05:37:32.591Z,3.65
2023-01-06T05:39:59.094Z,2.00
2023-01-06T05:42:25.753Z,5.40
2023-01-06T05:44:52.255Z,1.85
2023-01-06T05:47:18.799Z,4.05
2023-01-06T05:49:46.976Z,2.88
2023-01-06T05:52:13.606Z,2.85
2023-01-06T05:54:40.103Z,2.88
2023-01-06T05:57:07.086Z,2.47
2023-01-06T05:59:33.600Z,7.60
2023-01-06T06:02:00.219Z,5.93
2023-01-06T06:04:26.776Z,3.13
2023-01-06T06:06:54.701Z,6.63
2023-01-06T06:09:21.204Z,1.73
2023-01-06T06:11:47.803Z,3.33
2023-01-06T06:14:15.927Z,2.17
2023-01-06T06:16:43.857Z,4.50
2023-01-06T06:19:12.496Z,4.43
2023-01-06T06:21:39.283Z,2.92
2023-01-06T06:24:07.559Z,4.10
2023-01-06T06:26:34.124Z,3.15
2023-01-06T06:29:00.755Z,3.97
2023-01-06T06:31:29.242Z,2.55
2023-01-06T06:33:58.305Z,4.38
2023-01-06T06:36:25.496Z,4.63
2023-01-06T06:38:53.220Z,7.82
2023-01-06T06:41:22.156Z,3.03
2023-01-06T06:43:49.255Z,3.28
2023-01-06T06:46:16.530Z,2.55
2023-01-06T06:48:43.119Z,5.47
2023-01-06T06:51:11.216Z,3.67
2023-01-06T06:53:38.420Z,6.68
2023-01-06T06:56:06.790Z,4.47
2023-01-06T06:58:35.178Z,4.47
2023-01-06T07:01:03.902Z,1.50
2023-01-06T07:03:30.445Z,1.70
2023-01-06T07:05:57.117Z,2.92
2023-01-06T07:08:23.630Z,4.22
2023-01-06T07:10:50.334Z,3.38
2023-01-06T07:13:17.177Z,1.73
2023-01-06T07:15:45.170Z,2.22
2023-01-06T07:18:11.760Z,5.70
2023-01-06T07:20:39.267Z,3.25
2023-01-06T07:23:05.879Z,0.90
2023-01-06T07:25:32.614Z,1.50
2023-01-06T07:28:01.003Z,4.57
2023-01-06T07:30:28.091Z,3.35
2023-01-06T07:32:55.976Z,3.60
2023-01-06T07:35:22.598Z,2.30
2023-01-06T07:37:49.125Z,1.70
2023-01-06T07:40:15.779Z,5.25
2023-01-06T07:42:42.275Z,6.07
2023-01-06T07:45:09.874Z,2.13
2023-01-06T07:47:36.416Z,4.22
2023-01-06T07:50:05.290Z,5.03
2023-01-06T07:52:32.230Z,2.95
2023-01-06T07:54:59.097Z,2.85
2023-01-06T07:57:25.917Z,1.52
2023-01-06T07:59:52.522Z,4.10
2023-01-06T08:02:20.409Z,1.85
2023-01-06T08:04:49.559Z,4.03
2023-01-06T08:07:18.868Z,3.03
2023-01-06T08:09:46.028Z,1.52
2023-01-06T08:12:13.581Z,3.70
2023-01-06T08:14:40.892Z,1.75
2023-01-06T08:17:11.703Z,1.83
2023-01-06T08:19:41.954Z,2.95
2023-01-06T08:22:10.507Z,3.78
2023-01-06T08:24:40.466Z,3.92
2023-01-06T08:27:07.717Z,1.73
2023-01-06T08:29:34.906Z,1.00
2023-01-06T08:32:10.371Z,1.67
2023-01-06T08:34:40.397Z,2.33
2023-01-06T08:37:07.609Z,2.25
2023-01-06T08:39:34.659Z,2.58
2023-01-06T08:42:04.436Z,2.10
2023-01-06T08:44:31.909Z,3.13
2023-01-06T08:46:59.799Z,1.10
2023-01-06T08:49:28.034Z,1.23
2023-01-06T08:51:55.938Z,1.65
2023-01-06T08:54:23.058Z,2.72
2023-01-06T08:56:50.638Z,2.35
2023-01-06T08:59:19.637Z,6.43
2023-01-06T09:01:49.780Z,2.40
2023-01-06T09:04:24.673Z,2.42
2023-01-06T09:06:56.711Z,1.88
2023-01-06T09:09:30.061Z,1.80
2023-01-06T09:11:57.719Z,0.57
2023-01-06T09:14:31.429Z,2.28
2023-01-06T09:16:58.884Z,0.85
2023-01-06T09:19:28.008Z,1.48
2023-01-06T09:21:55.138Z,0.98
2023-01-06T09:24:21.831Z,1.83
2023-01-06T09:26:48.393Z,1.27
2023-01-06T09:29:14.957Z,2.38
2023-01-06T09:31:42.831Z,0.77
2023-01-06T09:34:09.374Z,1.50
2023-01-06T09:36:35.998Z,0.88
2023-01-06T09:39:02.566Z,1.50
2023-01-06T09:42:04.979Z,3.25
2023-01-06T09:44:33.303Z,0.90
2023-01-06T09:47:03.325Z,0.82
2023-01-06T09:49:43.005Z,2.17
2023-01-06T09:52:17.317Z,0.85
2023-01-06T09:54:53.983Z,1.33
2023-01-06T09:57:25.865Z,2.38
2023-01-06T10:02:29.208Z,1.40
2023-01-06T10:04:55.867Z,1.38
2023-01-06T10:07:29.272Z,1.55
2023-01-06T10:10:07.223Z,2.08
2023-01-06T10:12:47.428Z,0.95
2023-01-06T10:15:20.751Z,1.73
2023-01-06T10:18:01.375Z,1.25
2023-01-06T10:20:43.447Z,0.80
2023-01-06T10:23:24.820Z,1.20
2023-01-06T10:25:54.582Z,1.10
2023-01-06T10:28:27.699Z,1.35
2023-01-06T10:30:58.125Z,0.80
2023-01-06T10:33:28.048Z,2.20
2023-01-06T10:35:56.436Z,1.73
2023-01-06T10:38:29.176Z,1.27
2023-01-06T10:41:02.242Z,0.68
2023-01-06T10:43:28.839Z,0.85
2023-01-06T10:45:55.478Z,1.15
2023-01-06T10:48:30.330Z,1.20
2023-01-06T10:50:58.027Z,1.25
2023-01-06T10:53:24.604Z,0.80
2023-01-06T10:55:53.640Z,1.33
2023-01-06T10:58:30.018Z,2.30
2023-01-06T11:01:01.872Z,2.17
2023-01-06T11:03:34.451Z,2.97
2023-01-06T11:06:05.395Z,1.23
2023-01-06T11:08:32.939Z,1.95
2023-01-06T11:10:59.596Z,4.78
2023-01-06T11:13:29.218Z,4.88
2023-01-06T11:15:56.948Z,6.63
2023-01-06T11:18:27.918Z,3.80
2023-01-06T11:21:08.458Z,5.35
2023-01-06T11:23:37.351Z,1.40
2023-01-06T11:26:15.494Z,5.43
2023-01-06T11:28:43.706Z,2.33
2023-01-06T11:31:17.070Z,3.63
2023-01-06T11:33:49.184Z,5.13
2023-01-06T11:36:18.020Z,4.05
2023-01-06T11:38:47.146Z,3.95
2023-01-06T11:41:23.270Z,0.30
2023-01-06T11:43:51.800Z,5.20
2023-01-06T11:46:22.432Z,3.70
2023-01-06T11:48:54.924Z,4.38
2023-01-06T11:51:44.267Z,5.40
2023-01-06T11:54:24.005Z,1.25
2023-01-06T11:56:58.312Z,6.15
2023-01-06T11:59:27.058Z,3.10
2023-01-06T12:01:57.777Z,1.00
2023-01-06T12:04:30.562Z,3.27
2023-01-06T12:07:05.025Z,1.90
2023-01-06T12:09:36.375Z,6.57
2023-01-06T12:12:05.731Z,6.07
2023-01-06T12:14:36.419Z,3.88
2023-01-06T12:17:07.950Z,4.10
2023-01-06T12:22:17.543Z,3.80
2023-01-06T12:24:48.155Z,4.10
2023-01-06T12:27:29.970Z,2.97
2023-01-06T12:30:00.916Z,3.22
2023-01-06T12:32:38.299Z,3.40
2023-01-06T12:35:15.853Z,4.35
2023-01-06T12:37:50.141Z,4.20
2023-01-06T12:40:25.458Z,1.33
2023-01-06T12:43:00.717Z,1.95
2023-01-06T12:45:37.844Z,1.33
2023-01-06T12:48:18.347Z,1.33
2023-01-06T12:53:27.873Z,3.03
2023-01-06T12:56:11.789Z,1.67
2023-01-06T12:58:50.889Z,0.88
2023-01-06T13:01:22.606Z,3.35
2023-01-06T13:04:14.995Z,1.30
2023-01-06T13:06:57.804Z,1.00
2023-01-06T13:09:40.736Z,1.73
2023-01-06T13:12:23.658Z,2.28
2023-01-06T13:14:59.404Z,3.40
2023-01-06T13:17:36.197Z,2.08
2023-01-06T13:20:04.804Z,0.77
2023-01-06T13:22:47.766Z,3.50
2023-01-06T13:25:53.322Z,4.85
2023-01-06T13:28:30.257Z,1.65
2023-01-06T13:31:18.006Z,0.73
2023-01-06T13:34:03.708Z,2.65
2023-01-06T13:37:06.468Z,2.22
2023-01-06T13:39:38.709Z,1.73
2023-01-06T13:42:08.072Z,1.95
2023-01-06T13:44:38.530Z,2.92
2023-01-06T13:47:09.172Z,2.38
2023-01-06T13:49:37.168Z,0.70
2023-01-06T13:52:04.666Z,0.25
2023-01-06T13:55:04.247Z,1.77
2023-01-06T13:57:38.358Z,1.60
2023-01-06T14:00:23.864Z,3.33
2023-01-06T14:03:20.456Z,0.95
2023-01-06T14:05:58.422Z,2.33
2023-01-06T14:08:30.479Z,1.75
2023-01-06T14:11:14.044Z,2.33
2023-01-06T14:13:42.118Z,0.60
2023-01-06T14:16:10.647Z,1.88
2023-01-06T14:18:40.583Z,2.08
2023-01-06T14:21:17.618Z,2.25
2023-01-06T14:23:57.243Z,2.50
2023-01-06T14:26:53.730Z,1.63
2023-01-06T14:29:47.270Z,1.77
2023-01-06T14:32:47.332Z,3.10
2023-01-06T14:35:16.412Z,4.15
2023-01-06T14:37:45.988Z,3.00
2023-01-06T14:40:19.914Z,2.03
2023-01-06T14:42:46.903Z,1.08
2023-01-06T14:45:18.972Z,1.65
2023-01-06T14:47:50.486Z,1.55
2023-01-06T14:50:22.072Z,1.02
2023-01-06T14:52:54.289Z,3.25
2023-01-06T14:55:23.128Z,2.35
2023-01-06T14:57:51.341Z,1.52
2023-01-06T15:00:22.031Z,1.65
2023-01-06T15:02:51.217Z,1.40
2023-01-06T15:05:19.757Z,1.05
2023-01-06T15:08:00.775Z,3.20
2023-01-06T15:10:29.199Z,5.07
2023-01-06T15:12:57.676Z,3.47
2023-01-06T15:15:28.965Z,4.95
2023-01-06T15:17:57.069Z,5.50
2023-01-06T15:20:28.924Z,3.22
2023-01-06T15:22:56.035Z,3.35
2023-01-06T15:25:25.145Z,2.35
2023-01-06T15:27:52.934Z,2.88
2023-01-06T15:30:21.208Z,3.00
2023-01-06T15:32:50.290Z,1.90
2023-01-06T15:35:21.849Z,2.25
2023-01-06T15:37:55.993Z,2.65
2023-01-06T15:40:23.009Z,1.23
2023-01-06T15:42:49.676Z,1.77
2023-01-06T15:45:25.427Z,1.48
2023-01-06T15:47:54.513Z,1.67
2023-01-06T15:50:24.070Z,2.13
2023-01-06T15:52:53.095Z,1.38
2023-01-06T15:55:24.450Z,2.30
2023-01-06T15:57:53.785Z,1.30
2023-01-06T16:00:23.787Z,1.70
2023-01-06T16:02:50.475Z,1.65
2023-01-06T16:05:39.406Z,2.08
2023-01-06T16:08:14.213Z,2.13
2023-01-06T16:10:40.860Z,2.40
2023-01-06T16:13:27.933Z,2.55
2023-01-06T16:15:59.222Z,2.17
2023-01-06T16:18:29.055Z,2.10
2023-01-06T16:20:58.386Z,1.30
2023-01-06T16:23:30.489Z,1.95
2023-01-06T16:26:06.443Z,1.80
2023-01-06T16:28:33.566Z,1.40
2023-01-06T16:31:05.001Z,1.65
2023-01-06T16:33:36.761Z,0.68
2023-01-06T16:38:31.642Z,2.67
2023-01-06T16:40:58.709Z,1.65
2023-01-06T16:43:25.796Z,2.90
2023-01-06T16:45:53.405Z,1.48
2023-01-06T16:48:20.114Z,1.35
2023-01-06T16:50:47.430Z,1.20
2023-01-06T16:53:18.207Z,1.33
2023-01-06T16:55:44.961Z,2.40
2023-01-06T16:58:16.192Z,1.55
2023-01-06T17:00:43.234Z,3.00
2023-01-06T17:03:13.524Z,1.77
2023-01-06T17:05:40.237Z,1.48
2023-01-06T17:08:10.985Z,1.38
2023-01-06T17:10:39.072Z,3.45
2023-01-06T17:13:13.654Z,1.90
2023-01-06T17:15:40.977Z,0.82
2023-01-06T17:18:20.628Z,1.52
2023-01-06T17:20:47.531Z,1.25
2023-01-06T17:23:14.086Z,2.05
2023-01-06T17:25:44.053Z,1.52
2023-01-06T17:28:17.860Z,1.23
2023-01-06T17:30:44.420Z,2.60
2023-01-06T17:33:11.203Z,1.02
2023-01-06T17:35:38.078Z,2.63
2023-01-06T17:38:14.483Z,2.35
2023-01-06T17:40:42.618Z,1.70
2023-01-06T17:43:21.758Z,5.45
2023-01-06T17:45:48.395Z,2.33
2023-01-06T17:48:15.026Z,2.20
2023-01-06T17:50:45.998Z,1.77
2023-01-06T17:53:14.922Z,1.83
2023-01-06T17:55:48.481Z,2.38
2023-01-06T17:58:16.946Z,1.40
2023-01-06T18:00:44.562Z,1.58
2023-01-06T18:03:17.648Z,2.17
2023-01-06T18:06:22.620Z,3.22
2023-01-06T18:08:53.259Z,2.03
2023-01-06T18:11:31.902Z,3.47
2023-01-06T18:14:15.439Z,2.75
2023-01-06T18:16:45.014Z,2.15
2023-01-06T18:19:24.002Z,1.45
2023-01-06T18:21:50.831Z,2.58
2023-01-06T18:24:22.675Z,2.50
2023-01-06T18:26:54.413Z,2.17
2023-01-06T18:29:23.854Z,2.88
2023-01-06T18:31:52.198Z,2.30
2023-01-06T18:34:25.417Z,1.10
2023-01-06T18:36:52.796Z,2.10
2023-01-06T18:39:22.712Z,2.97
2023-01-06T18:42:08.659Z,2.38
2023-01-06T18:44:35.307Z,2.78
2023-01-06T18:47:02.283Z,2.85
2023-01-06T18:49:33.095Z,4.00
2023-01-06T18:52:06.749Z,2.95
2023-01-06T18:54:33.753Z,2.38
2023-01-06T18:57:01.640Z,3.05
2023-01-06T18:59:28.254Z,2.08
2023-01-06T19:01:55.914Z,3.63
2023-01-06T19:04:26.475Z,3.03
2023-01-06T19:06:56.989Z,2.20
2023-01-06T19:09:34.019Z,3.10
2023-01-06T19:12:18.454Z,2.95
2023-01-06T19:14:49.282Z,4.43
2023-01-06T19:17:21.752Z,2.03
2023-01-06T19:19:48.954Z,2.15
2023-01-06T19:22:21.865Z,4.00
2023-01-06T19:24:52.036Z,4.28
2023-01-06T19:27:42.236Z,3.65
2023-01-06T19:30:41.053Z,4.95
2023-01-06T19:33:37.293Z,3.90
2023-01-06T19:36:31.254Z,2.40
2023-01-06T19:39:00.467Z,2.30
2023-01-06T19:41:29.869Z,4.03
2023-01-06T19:44:08.823Z,2.97
2023-01-06T19:46:36.540Z,3.92
2023-01-06T19:49:07.365Z,6.38
2023-01-06T19:51:35.713Z,3.27
2023-01-06T19:54:04.037Z,2.90
2023-01-06T19:56:34.723Z,2.85
2023-01-06T19:59:09.893Z,2.40
2023-01-06T20:01:36.628Z,3.97
2023-01-06T20:04:03.294Z,2.80
2023-01-06T20:06:29.906Z,4.15
2023-01-06T20:08:56.408Z,2.58
2023-01-06T20:11:23.041Z,4.35
2023-01-06T20:13:49.822Z,3.45
2023-01-06T20:16:17.866Z,3.03
2023-01-06T20:18:44.412Z,3.95
2023-01-06T20:21:10.968Z,3.33
2023-01-06T20:23:37.475Z,4.85
2023-01-06T20:26:04.220Z,3.53
2023-01-06T20:28:31.841Z,3.95
2023-01-06T20:30:58.429Z,2.83
2023-01-06T20:33:26.578Z,3.50
2023-01-06T20:35:53.221Z,3.25
2023-01-06T20:38:19.742Z,2.55
2023-01-06T20:40:46.307Z,2.58
2023-01-06T20:43:12.840Z,2.42
2023-01-06T20:45:39.600Z,3.28
2023-01-06T20:48:06.567Z,3.80
2023-01-06T20:50:34.801Z,3.38
2023-01-06T20:53:01.469Z,3.30
2023-01-06T20:55:28.170Z,3.33
2023-01-06T20:57:54.927Z,4.60
2023-01-06T21:00:21.876Z,5.13
2023-01-06T21:02:48.423Z,5.15
2023-01-06T21:05:15.263Z,2.78
2023-01-06T21:07:43.173Z,9.30
2023-01-06T21:10:10.046Z,4.85
2023-01-06T21:12:36.684Z,2.25
2023-01-06T21:15:03.625Z,3.22
2023-01-06T21:17:30.204Z,4.55
2023-01-06T21:19:56.921Z,3.15
2023-01-06T21:22:23.634Z,3.95
2023-01-06T21:24:51.596Z,2.30
2023-01-06T21:27:18.295Z,4.82
2023-01-06T21:29:44.951Z,3.47
2023-01-06T21:32:11.531Z,3.08
2023-01-06T21:34:39.067Z,5.07
2023-01-06T21:37:06.040Z,3.97
2023-01-06T21:39:32.795Z,4.55
2023-01-06T21:42:00.773Z,4.13
2023-01-06T21:44:27.372Z,4.25
2023-01-06T21:46:53.901Z,5.82
2023-01-06T21:49:20.677Z,4.03
2023-01-06T21:51:47.709Z,5.28
2023-01-06T21:54:14.469Z,4.80
2023-01-06T21:56:41.141Z,3.80
2023-01-06T21:59:09.327Z,4.15
2023-01-06T22:01:35.957Z,11.15
2023-01-06T22:04:02.803Z,6.68
2023-01-06T22:06:29.813Z,6.82
2023-01-06T22:08:59.504Z,5.18
2023-01-06T22:11:27.333Z,5.35
2023-01-06T22:13:54.030Z,4.35
2023-01-06T22:16:22.057Z,4.47
2023-01-06T22:18:48.725Z,2.60
2023-01-06T22:21:16.291Z,3.47
2023-01-06T22:23:43.459Z,4.45
2023-01-06T22:26:10.011Z,2.80
2023-01-06T22:28:36.552Z,4.28
2023-01-06T22:31:03.227Z,3.17
2023-01-06T22:33:31.505Z,3.53
2023-01-06T22:35:58.990Z,1.98
2023-01-06T22:38:25.793Z,3.28
2023-01-06T22:40:52.931Z,4.80
2023-01-06T22:43:19.503Z,3.80
2023-01-06T22:45:51.260Z,3.65
2023-01-06T22:50:46.576Z,2.28
2023-01-06T22:53:13.126Z,2.65
2023-01-06T22:55:39.679Z,4.45
2023-01-06T22:58:07.243Z,5.03
2023-01-06T23:00:33.769Z,2.60
2023-01-06T23:03:00.393Z,2.30
2023-01-06T23:05:27.013Z,1.90
2023-01-06T23:07:54.987Z,4.13
2023-01-06T23:10:21.533Z,4.22
2023-01-06T23:12:48.095Z,2.90
2023-01-06T23:15:14.625Z,4.07
2023-01-06T23:17:41.236Z,2.90
2023-01-06T23:20:08.787Z,3.92
2023-01-06T23:22:35.609Z,2.25
2023-01-06T23:25:03.964Z,2.25
2023-01-06T23:27:31.501Z,2.83
2023-01-06T23:29:58.215Z,4.40
2023-01-06T23:32:24.827Z,4.22
2023-01-06T23:34:51.372Z,2.55
2023-01-06T23:37:17.993Z,2.88
2023-01-06T23:39:44.531Z,2.40
2023-01-06T23:42:12.518Z,3.67
2023-01-06T23:44:39.030Z,3.20
2023-01-06T23:47:08.180Z,3.20
2023-01-06T23:49:34.836Z,3.10
2023-01-06T23:52:01.389Z,3.88
2023-01-06T23:54:27.920Z,2.50
2023-01-06T23:56:54.470Z,6.43
2023-01-06T23:59:22.342Z,4.72
